ISABELLA DAM (ISB)

Elevation: 2635' · KERN R basin · Operator: US Army Corps of Engineers

Provisional data, subject to change.
Query executed Sunday at 7:03:41   clock

Select a sensor type for a plot of data.
Note: Reservoir Flows are daily averages.

Earlier

Date RES ELE    STORAGE    RES CHG    TOC STO    ABV TOC    OUTFLOW    INFLOW    FNF    PPT INC    PPTINC4    TEMP MN    TEMP MX    WINDLEN    EVP PAN   
 FEET   AF   AF   AF   AF   CFS   CFS   CFS   INCHES   INCHES   DEG F   DEG F   MILES   INCHES  
07/29/2016 2554.24 135572 -1087 361250 -225678 751 286 286 0.02 0.00 23 42 230 0.50
07/30/2016 2554.07 134696 -876 361250 -226554 647 284 284 0.00 0.00 24 40 217 0.47
07/31/2016 2553.91 133875 -821 361250 -227375 607 284 284 0.00 0.00 25 37 314 0.52
08/01/2016 2553.74 133006 -869 361250 -228244 577 233 233 0.00 0.00 24 37 349 0.54
08/02/2016 2553.56 132091 -- 361250 -- 560 189 189 0.00 0.00 24 36 333 0.52
08/03/2016 2553.37 131129 -962 361250 -230121 608 215 215 0.00 0.00 24 36 350 0.53
08/04/2016 2553.15 130021 -1108 361250 -231229 658 181 181 0.00 0.00 24 37 277 0.47
08/05/2016 2552.94 128970 -1051 361250 -232280 670 217 217 0.00 0.00 20 35 239 0.45
08/06/2016 2552.75 128023 -947 361250 -233227 634 235 235 0.00 0.00 18 35 252 0.46
08/07/2016 2552.54 126983 -1040 361250 -234267 618 169 169 0.00 0.00 19 32 283 0.44
08/08/2016 2552.32 125899 -1084 361250 -235351 660 188 188 0.00 0.00 17 34 241 0.44
08/09/2016 2552.11 124870 -1029 361250 -236380 628 183 183 0.00 0.00 19 34 250 0.44
08/10/2016 2551.92 123943 -927 361250 -237307 576 174 174 0.00 0.00 17 33 190 0.39
08/11/2016 2551.72 122974 -969 361250 -238276 598 182 182 0.00 0.00 17 38 198 0.44
08/12/2016 2551.51 121961 -1013 361250 -239289 604 163 163 0.00 0.00 18 37 203 0.42
08/13/2016 2551.31 121001 -960 361250 -240249 572 161 161 0.02 0.00 21 38 220 0.44
08/14/2016 2551.11 120047 -954 361250 -241203 570 161 161 0.00 0.00 21 39 210 0.44
08/15/2016 2550.89 119004 -1043 361250 -242246 600 147 147 0.00 0.00 22 36 214 0.44
08/16/2016 2550.65 117872 -1132 361250 -243378 646 142 142 0.00 0.00 18 37 183 0.41
08/17/2016 2550.41 116748 -1124 361250 -244502 653 153 153 0.00 0.00 17 38 182 0.41
08/18/2016 2550.16 115585 -1163 361250 -245665 678 159 159 0.00 0.00 18 38 193 0.42
08/19/2016 2549.90 114383 -1202 361250 -246867 680 137 137 0.00 0.00 19 36 203 0.40
08/20/2016 2549.66 113282 -1101 361250 -247968 653 157 157 0.00 0.00 21 35 222 0.37
08/21/2016 2549.43 112234 -1048 361250 -249016 605 143 143 0.00 0.00 22 34 275 0.43
08/22/2016 2549.23 111327 -907 361250 -249923 551 146 146 0.00 0.00 21 32 221 0.33
08/23/2016 2549.05 110516 -811 361250 -250734 488 140 140 0.00 0.00 19 33 269 0.40
08/24/2016 2548.87 109708 -808 361250 -251542 457 118 118 0.00 0.00 21 34 310 0.44
08/25/2016 2548.71 108994 -714 361250 -252256 449 156 156 0.02 0.00 20 34 297 0.44
08/26/2016 2548.58 108416 -578 361250 -252834 373 140 -- 0.00 0.00 19 33 222 0.38
08/27/2016 2548.48 107973 -443 361250 -253277 291 126 -- 0.00 0.00 18 33 252 0.39
08/28/2016 -- -- -- -- -- -- -- -- -- -- -- -- -- --

Later | Latest

Warning! This data is preliminary and subject to revision.

Show ISB Map | Plot ISB Data | 1 Month ISB Data | Real-Time ISB Data | ISB Info